sensor_id;sensor_type;location;lat;lon;timestamp;P1;durP1;ratioP1;P2;durP2;ratioP2
38085;SDS011;23896;50.678;10.924;2022-09-09T00:02:22;5.90;;;2.95;;
38085;SDS011;23896;50.678;10.924;2022-09-09T00:05:09;7.50;;;2.05;;
38085;SDS011;23896;50.678;10.924;2022-09-09T00:07:46;5.70;;;3.67;;
38085;SDS011;23896;50.678;10.924;2022-09-09T00:10:15;4.32;;;1.20;;
38085;SDS011;23896;50.678;10.924;2022-09-09T00:16:02;4.95;;;2.95;;
38085;SDS011;23896;50.678;10.924;2022-09-09T00:21:28;12.25;;;7.80;;
38085;SDS011;23896;50.678;10.924;2022-09-09T00:23:57;9.82;;;7.80;;
38085;SDS011;23896;50.678;10.924;2022-09-09T00:31:26;16.45;;;12.65;;
38085;SDS011;23896;50.678;10.924;2022-09-09T00:34:03;6.80;;;4.88;;
38085;SDS011;23896;50.678;10.924;2022-09-09T00:36:31;5.78;;;5.00;;
38085;SDS011;23896;50.678;10.924;2022-09-09T00:39:00;7.00;;;6.00;;
38085;SDS011;23896;50.678;10.924;2022-09-09T00:52:08;5.47;;;4.22;;
38085;SDS011;23896;50.678;10.924;2022-09-09T01:04:58;3.67;;;2.20;;
38085;SDS011;23896;50.678;10.924;2022-09-09T01:07:28;2.28;;;1.63;;
38085;SDS011;23896;50.678;10.924;2022-09-09T01:09:55;3.55;;;1.48;;
38085;SDS011;23896;50.678;10.924;2022-09-09T01:12:38;3.50;;;1.52;;
38085;SDS011;23896;50.678;10.924;2022-09-09T01:15:28;3.72;;;1.23;;
38085;SDS011;23896;50.678;10.924;2022-09-09T01:18:30;2.88;;;1.08;;
38085;SDS011;23896;50.678;10.924;2022-09-09T01:28:38;4.35;;;1.05;;
38085;SDS011;23896;50.678;10.924;2022-09-09T01:31:06;5.85;;;1.13;;
38085;SDS011;23896;50.678;10.924;2022-09-09T01:33:35;1.67;;;1.00;;
38085;SDS011;23896;50.678;10.924;2022-09-09T01:38:28;4.22;;;1.05;;
38085;SDS011;23896;50.678;10.924;2022-09-09T01:40:56;2.90;;;1.15;;
38085;SDS011;23896;50.678;10.924;2022-09-09T01:43:23;5.68;;;1.55;;
38085;SDS011;23896;50.678;10.924;2022-09-09T01:45:52;2.97;;;1.08;;
38085;SDS011;23896;50.678;10.924;2022-09-09T01:48:20;1.67;;;1.10;;
38085;SDS011;23896;50.678;10.924;2022-09-09T01:50:47;3.35;;;1.30;;
38085;SDS011;23896;50.678;10.924;2022-09-09T01:53:14;2.38;;;0.90;;
38085;SDS011;23896;50.678;10.924;2022-09-09T01:55:49;4.00;;;1.17;;
38085;SDS011;23896;50.678;10.924;2022-09-09T02:00:50;1.27;;;0.93;;
38085;SDS011;23896;50.678;10.924;2022-09-09T02:03:25;4.65;;;1.10;;
38085;SDS011;23896;50.678;10.924;2022-09-09T02:08:55;2.45;;;0.90;;
38085;SDS011;23896;50.678;10.924;2022-09-09T02:11:25;3.90;;;0.90;;
38085;SDS011;23896;50.678;10.924;2022-09-09T02:13:53;2.50;;;1.00;;
38085;SDS011;23896;50.678;10.924;2022-09-09T02:21:17;2.47;;;1.00;;
38085;SDS011;23896;50.678;10.924;2022-09-09T02:23:43;2.53;;;1.08;;
38085;SDS011;23896;50.678;10.924;2022-09-09T02:26:13;3.28;;;0.90;;
38085;SDS011;23896;50.678;10.924;2022-09-09T02:28:45;1.45;;;0.82;;
38085;SDS011;23896;50.678;10.924;2022-09-09T02:31:13;2.40;;;0.90;;
38085;SDS011;23896;50.678;10.924;2022-09-09T02:33:42;3.45;;;1.05;;
38085;SDS011;23896;50.678;10.924;2022-09-09T02:36:09;3.63;;;1.10;;
38085;SDS011;23896;50.678;10.924;2022-09-09T02:38:37;3.03;;;1.13;;
38085;SDS011;23896;50.678;10.924;2022-09-09T02:41:05;3.47;;;0.93;;
38085;SDS011;23896;50.678;10.924;2022-09-09T02:43:32;1.55;;;0.98;;
38085;SDS011;23896;50.678;10.924;2022-09-09T02:46:42;1.35;;;0.98;;
38085;SDS011;23896;50.678;10.924;2022-09-09T02:48:59;3.58;;;1.52;;
38085;SDS011;23896;50.678;10.924;2022-09-09T02:51:31;2.05;;;1.10;;
38085;SDS011;23896;50.678;10.924;2022-09-09T02:56:38;4.90;;;1.35;;
38085;SDS011;23896;50.678;10.924;2022-09-09T02:59:06;2.10;;;0.90;;
38085;SDS011;23896;50.678;10.924;2022-09-09T03:01:32;1.75;;;1.20;;
38085;SDS011;23896;50.678;10.924;2022-09-09T03:04:01;0.85;;;0.80;;
38085;SDS011;23896;50.678;10.924;2022-09-09T03:06:30;2.47;;;0.93;;
38085;SDS011;23896;50.678;10.924;2022-09-09T03:08:56;4.15;;;1.20;;
38085;SDS011;23896;50.678;10.924;2022-09-09T03:11:26;2.65;;;1.25;;
38085;SDS011;23896;50.678;10.924;2022-09-09T03:13:53;1.23;;;0.95;;
38085;SDS011;23896;50.678;10.924;2022-09-09T03:16:21;3.78;;;1.50;;
38085;SDS011;23896;50.678;10.924;2022-09-09T03:18:48;3.53;;;1.30;;
38085;SDS011;23896;50.678;10.924;2022-09-09T03:21:14;3.55;;;1.30;;
38085;SDS011;23896;50.678;10.924;2022-09-09T03:23:41;3.72;;;0.85;;
38085;SDS011;23896;50.678;10.924;2022-09-09T03:26:08;1.63;;;0.90;;
38085;SDS011;23896;50.678;10.924;2022-09-09T03:28:35;4.43;;;1.52;;
38085;SDS011;23896;50.678;10.924;2022-09-09T03:31:02;2.38;;;1.20;;
38085;SDS011;23896;50.678;10.924;2022-09-09T03:33:29;4.25;;;1.17;;
38085;SDS011;23896;50.678;10.924;2022-09-09T03:36:00;1.38;;;0.95;;
38085;SDS011;23896;50.678;10.924;2022-09-09T03:38:32;2.15;;;0.90;;
38085;SDS011;23896;50.678;10.924;2022-09-09T03:40:59;3.78;;;1.55;;
38085;SDS011;23896;50.678;10.924;2022-09-09T03:43:27;3.90;;;0.95;;
38085;SDS011;23896;50.678;10.924;2022-09-09T03:45:54;3.42;;;1.30;;
38085;SDS011;23896;50.678;10.924;2022-09-09T03:48:22;2.97;;;1.10;;
38085;SDS011;23896;50.678;10.924;2022-09-09T03:50:50;3.13;;;1.33;;
38085;SDS011;23896;50.678;10.924;2022-09-09T03:53:19;2.35;;;1.25;;
38085;SDS011;23896;50.678;10.924;2022-09-09T03:55:47;4.80;;;2.25;;
38085;SDS011;23896;50.678;10.924;2022-09-09T04:00:59;2.85;;;1.35;;
38085;SDS011;23896;50.678;10.924;2022-09-09T04:03:26;2.30;;;1.35;;
38085;SDS011;23896;50.678;10.924;2022-09-09T04:06:00;4.28;;;1.13;;
38085;SDS011;23896;50.678;10.924;2022-09-09T04:08:28;3.67;;;1.00;;
38085;SDS011;23896;50.678;10.924;2022-09-09T04:10:56;2.42;;;1.10;;
38085;SDS011;23896;50.678;10.924;2022-09-09T04:13:24;2.83;;;0.98;;
38085;SDS011;23896;50.678;10.924;2022-09-09T04:15:51;2.88;;;0.93;;
38085;SDS011;23896;50.678;10.924;2022-09-09T04:18:18;5.03;;;1.20;;
38085;SDS011;23896;50.678;10.924;2022-09-09T04:20:48;1.75;;;1.55;;
38085;SDS011;23896;50.678;10.924;2022-09-09T04:23:16;2.65;;;1.00;;
38085;SDS011;23896;50.678;10.924;2022-09-09T04:25:51;3.75;;;1.98;;
38085;SDS011;23896;50.678;10.924;2022-09-09T04:28:18;4.05;;;1.02;;
38085;SDS011;23896;50.678;10.924;2022-09-09T04:30:45;2.38;;;0.82;;
38085;SDS011;23896;50.678;10.924;2022-09-09T04:33:12;1.90;;;1.00;;
38085;SDS011;23896;50.678;10.924;2022-09-09T04:35:39;1.80;;;1.10;;
38085;SDS011;23896;50.678;10.924;2022-09-09T04:38:06;3.25;;;1.20;;
38085;SDS011;23896;50.678;10.924;2022-09-09T04:40:37;3.15;;;1.38;;
38085;SDS011;23896;50.678;10.924;2022-09-09T04:43:08;5.20;;;1.35;;
38085;SDS011;23896;50.678;10.924;2022-09-09T04:45:35;3.00;;;1.23;;
38085;SDS011;23896;50.678;10.924;2022-09-09T04:48:02;3.28;;;1.00;;
38085;SDS011;23896;50.678;10.924;2022-09-09T04:50:29;5.65;;;1.30;;
38085;SDS011;23896;50.678;10.924;2022-09-09T04:52:55;6.53;;;1.00;;
38085;SDS011;23896;50.678;10.924;2022-09-09T04:55:22;1.38;;;1.15;;
38085;SDS011;23896;50.678;10.924;2022-09-09T04:57:48;2.83;;;1.17;;
38085;SDS011;23896;50.678;10.924;2022-09-09T05:00:15;3.92;;;1.17;;
38085;SDS011;23896;50.678;10.924;2022-09-09T05:02:42;2.33;;;0.93;;
38085;SDS011;23896;50.678;10.924;2022-09-09T05:05:08;3.63;;;1.13;;
38085;SDS011;23896;50.678;10.924;2022-09-09T05:07:36;2.58;;;0.95;;
38085;SDS011;23896;50.678;10.924;2022-09-09T05:10:03;2.65;;;1.10;;
38085;SDS011;23896;50.678;10.924;2022-09-09T05:12:30;3.63;;;1.45;;
38085;SDS011;23896;50.678;10.924;2022-09-09T05:14:57;4.43;;;1.20;;
38085;SDS011;23896;50.678;10.924;2022-09-09T05:17:23;1.73;;;1.02;;
38085;SDS011;23896;50.678;10.924;2022-09-09T05:19:49;2.92;;;1.10;;
38085;SDS011;23896;50.678;10.924;2022-09-09T05:22:19;2.35;;;1.23;;
38085;SDS011;23896;50.678;10.924;2022-09-09T05:24:46;4.80;;;1.27;;
38085;SDS011;23896;50.678;10.924;2022-09-09T05:27:16;6.25;;;1.33;;
38085;SDS011;23896;50.678;10.924;2022-09-09T05:29:44;3.97;;;1.13;;
38085;SDS011;23896;50.678;10.924;2022-09-09T05:32:11;3.90;;;1.10;;
38085;SDS011;23896;50.678;10.924;2022-09-09T05:34:38;3.38;;;1.10;;
38085;SDS011;23896;50.678;10.924;2022-09-09T05:37:05;2.17;;;1.30;;
38085;SDS011;23896;50.678;10.924;2022-09-09T05:39:33;3.33;;;1.02;;
38085;SDS011;23896;50.678;10.924;2022-09-09T05:42:02;4.35;;;1.15;;
38085;SDS011;23896;50.678;10.924;2022-09-09T05:44:29;2.85;;;1.08;;
38085;SDS011;23896;50.678;10.924;2022-09-09T05:46:55;3.97;;;1.30;;
38085;SDS011;23896;50.678;10.924;2022-09-09T05:49:23;2.80;;;1.40;;
38085;SDS011;23896;50.678;10.924;2022-09-09T05:51:49;5.13;;;0.90;;
38085;SDS011;23896;50.678;10.924;2022-09-09T05:54:16;5.05;;;1.17;;
38085;SDS011;23896;50.678;10.924;2022-09-09T05:56:43;3.03;;;0.90;;
38085;SDS011;23896;50.678;10.924;2022-09-09T05:59:10;5.35;;;1.20;;
38085;SDS011;23896;50.678;10.924;2022-09-09T06:01:37;5.50;;;1.35;;
38085;SDS011;23896;50.678;10.924;2022-09-09T06:04:05;3.58;;;1.20;;
38085;SDS011;23896;50.678;10.924;2022-09-09T06:06:36;6.90;;;1.25;;
38085;SDS011;23896;50.678;10.924;2022-09-09T06:09:05;2.45;;;1.20;;
38085;SDS011;23896;50.678;10.924;2022-09-09T06:11:35;3.17;;;1.13;;
38085;SDS011;23896;50.678;10.924;2022-09-09T06:14:01;1.95;;;1.20;;
38085;SDS011;23896;50.678;10.924;2022-09-09T06:16:28;2.45;;;1.10;;
38085;SDS011;23896;50.678;10.924;2022-09-09T06:18:55;3.67;;;1.30;;
38085;SDS011;23896;50.678;10.924;2022-09-09T06:21:32;5.43;;;1.67;;
38085;SDS011;23896;50.678;10.924;2022-09-09T06:24:00;4.80;;;1.10;;
38085;SDS011;23896;50.678;10.924;2022-09-09T06:26:27;3.40;;;1.00;;
38085;SDS011;23896;50.678;10.924;2022-09-09T06:28:55;1.85;;;1.10;;
38085;SDS011;23896;50.678;10.924;2022-09-09T06:31:24;4.32;;;1.13;;
38085;SDS011;23896;50.678;10.924;2022-09-09T06:33:51;2.22;;;1.38;;
38085;SDS011;23896;50.678;10.924;2022-09-09T06:36:18;4.45;;;1.50;;
38085;SDS011;23896;50.678;10.924;2022-09-09T06:38:45;4.10;;;1.20;;
38085;SDS011;23896;50.678;10.924;2022-09-09T06:41:13;4.43;;;1.10;;
38085;SDS011;23896;50.678;10.924;2022-09-09T06:43:40;4.93;;;1.23;;
38085;SDS011;23896;50.678;10.924;2022-09-09T06:46:08;4.05;;;1.20;;
38085;SDS011;23896;50.678;10.924;2022-09-09T06:48:35;3.70;;;2.03;;
38085;SDS011;23896;50.678;10.924;2022-09-09T06:51:06;3.45;;;1.48;;
38085;SDS011;23896;50.678;10.924;2022-09-09T06:53:34;5.05;;;1.63;;
38085;SDS011;23896;50.678;10.924;2022-09-09T06:58:48;5.60;;;1.77;;
38085;SDS011;23896;50.678;10.924;2022-09-09T07:01:16;4.00;;;1.23;;
38085;SDS011;23896;50.678;10.924;2022-09-09T07:03:45;2.83;;;1.50;;
38085;SDS011;23896;50.678;10.924;2022-09-09T07:06:19;4.40;;;1.50;;
38085;SDS011;23896;50.678;10.924;2022-09-09T07:08:53;3.78;;;1.58;;
38085;SDS011;23896;50.678;10.924;2022-09-09T07:13:46;2.95;;;1.30;;
38085;SDS011;23896;50.678;10.924;2022-09-09T07:16:14;5.90;;;1.52;;
38085;SDS011;23896;50.678;10.924;2022-09-09T07:18:41;3.28;;;1.23;;
38085;SDS011;23896;50.678;10.924;2022-09-09T07:21:11;3.67;;;1.85;;
38085;SDS011;23896;50.678;10.924;2022-09-09T07:23:38;5.07;;;1.60;;
38085;SDS011;23896;50.678;10.924;2022-09-09T07:26:09;1.52;;;0.90;;
38085;SDS011;23896;50.678;10.924;2022-09-09T07:28:35;5.03;;;1.50;;
38085;SDS011;23896;50.678;10.924;2022-09-09T07:31:02;2.00;;;1.33;;
38085;SDS011;23896;50.678;10.924;2022-09-09T07:33:30;5.10;;;2.42;;
38085;SDS011;23896;50.678;10.924;2022-09-09T07:36:30;3.40;;;1.50;;
38085;SDS011;23896;50.678;10.924;2022-09-09T07:38:51;5.77;;;1.67;;
38085;SDS011;23896;50.678;10.924;2022-09-09T07:41:20;1.98;;;1.15;;
38085;SDS011;23896;50.678;10.924;2022-09-09T07:43:47;4.55;;;1.23;;
38085;SDS011;23896;50.678;10.924;2022-09-09T07:46:14;4.25;;;1.33;;
38085;SDS011;23896;50.678;10.924;2022-09-09T07:48:44;2.47;;;1.63;;
38085;SDS011;23896;50.678;10.924;2022-09-09T07:51:12;2.47;;;1.40;;
38085;SDS011;23896;50.678;10.924;2022-09-09T07:53:43;4.75;;;1.83;;
38085;SDS011;23896;50.678;10.924;2022-09-09T07:56:10;4.95;;;1.67;;
38085;SDS011;23896;50.678;10.924;2022-09-09T07:58:38;5.07;;;3.78;;
38085;SDS011;23896;50.678;10.924;2022-09-09T08:01:09;3.92;;;1.98;;
38085;SDS011;23896;50.678;10.924;2022-09-09T08:03:36;7.85;;;2.17;;
38085;SDS011;23896;50.678;10.924;2022-09-09T08:06:03;8.00;;;3.20;;
38085;SDS011;23896;50.678;10.924;2022-09-09T08:08:35;7.10;;;1.60;;
38085;SDS011;23896;50.678;10.924;2022-09-09T08:11:07;7.18;;;1.88;;
38085;SDS011;23896;50.678;10.924;2022-09-09T08:13:35;5.28;;;1.95;;
38085;SDS011;23896;50.678;10.924;2022-09-09T08:16:06;6.85;;;2.38;;
38085;SDS011;23896;50.678;10.924;2022-09-09T08:18:33;2.97;;;1.40;;
38085;SDS011;23896;50.678;10.924;2022-09-09T08:21:06;4.93;;;1.90;;
38085;SDS011;23896;50.678;10.924;2022-09-09T08:23:34;2.88;;;1.50;;
38085;SDS011;23896;50.678;10.924;2022-09-09T08:26:35;2.90;;;1.23;;
38085;SDS011;23896;50.678;10.924;2022-09-09T08:28:54;4.85;;;1.30;;
38085;SDS011;23896;50.678;10.924;2022-09-09T08:31:23;1.98;;;1.30;;
38085;SDS011;23896;50.678;10.924;2022-09-09T08:33:49;4.30;;;1.30;;
38085;SDS011;23896;50.678;10.924;2022-09-09T08:36:19;5.13;;;1.70;;
38085;SDS011;23896;50.678;10.924;2022-09-09T08:38:47;3.75;;;1.50;;
38085;SDS011;23896;50.678;10.924;2022-09-09T08:44:03;4.05;;;1.50;;
38085;SDS011;23896;50.678;10.924;2022-09-09T08:46:56;3.00;;;1.00;;
38085;SDS011;23896;50.678;10.924;2022-09-09T08:49:24;4.45;;;1.27;;
38085;SDS011;23896;50.678;10.924;2022-09-09T08:52:01;3.17;;;1.35;;
38085;SDS011;23896;50.678;10.924;2022-09-09T08:54:28;2.97;;;1.27;;
38085;SDS011;23896;50.678;10.924;2022-09-09T08:56:58;3.78;;;1.20;;
38085;SDS011;23896;50.678;10.924;2022-09-09T08:59:25;3.70;;;1.70;;
38085;SDS011;23896;50.678;10.924;2022-09-09T09:04:33;3.95;;;1.38;;
38085;SDS011;23896;50.678;10.924;2022-09-09T09:12:24;7.13;;;2.20;;
38085;SDS011;23896;50.678;10.924;2022-09-09T09:14:51;6.40;;;1.65;;
38085;SDS011;23896;50.678;10.924;2022-09-09T09:17:21;4.55;;;1.60;;
38085;SDS011;23896;50.678;10.924;2022-09-09T09:19:48;2.72;;;1.23;;
38085;SDS011;23896;50.678;10.924;2022-09-09T09:24:53;4.22;;;1.00;;
38085;SDS011;23896;50.678;10.924;2022-09-09T09:27:34;5.50;;;1.75;;
38085;SDS011;23896;50.678;10.924;2022-09-09T09:30:10;3.58;;;1.45;;
38085;SDS011;23896;50.678;10.924;2022-09-09T09:32:40;8.02;;;2.17;;
38085;SDS011;23896;50.678;10.924;2022-09-09T09:35:11;5.53;;;1.52;;
38085;SDS011;23896;50.678;10.924;2022-09-09T09:37:39;3.65;;;1.33;;
38085;SDS011;23896;50.678;10.924;2022-09-09T09:40:18;5.32;;;1.50;;
38085;SDS011;23896;50.678;10.924;2022-09-09T09:42:48;2.38;;;1.23;;
38085;SDS011;23896;50.678;10.924;2022-09-09T09:46:01;5.85;;;1.60;;
38085;SDS011;23896;50.678;10.924;2022-09-09T09:48:06;5.68;;;1.33;;
38085;SDS011;23896;50.678;10.924;2022-09-09T09:50:35;4.43;;;1.75;;
38085;SDS011;23896;50.678;10.924;2022-09-09T09:53:17;5.40;;;1.70;;
38085;SDS011;23896;50.678;10.924;2022-09-09T09:55:50;3.80;;;1.20;;
38085;SDS011;23896;50.678;10.924;2022-09-09T10:00:49;7.75;;;3.75;;
38085;SDS011;23896;50.678;10.924;2022-09-09T10:03:23;5.68;;;2.20;;
38085;SDS011;23896;50.678;10.924;2022-09-09T10:05:51;4.20;;;1.50;;
38085;SDS011;23896;50.678;10.924;2022-09-09T10:08:17;3.85;;;1.58;;
38085;SDS011;23896;50.678;10.924;2022-09-09T10:16:14;4.28;;;1.52;;
38085;SDS011;23896;50.678;10.924;2022-09-09T10:34:55;7.95;;;1.60;;
38085;SDS011;23896;50.678;10.924;2022-09-09T10:40:26;4.50;;;0.90;;
38085;SDS011;23896;50.678;10.924;2022-09-09T10:45:38;5.97;;;1.30;;
38085;SDS011;23896;50.678;10.924;2022-09-09T10:55:40;6.63;;;1.48;;
38085;SDS011;23896;50.678;10.924;2022-09-09T10:58:10;2.97;;;1.45;;
38085;SDS011;23896;50.678;10.924;2022-09-09T11:00:45;5.03;;;1.23;;
38085;SDS011;23896;50.678;10.924;2022-09-09T11:03:16;3.30;;;1.05;;
38085;SDS011;23896;50.678;10.924;2022-09-09T11:05:55;2.88;;;1.10;;
38085;SDS011;23896;50.678;10.924;2022-09-09T11:08:26;3.92;;;1.40;;
38085;SDS011;23896;50.678;10.924;2022-09-09T11:11:14;4.75;;;1.20;;
38085;SDS011;23896;50.678;10.924;2022-09-09T11:18:48;4.13;;;1.75;;
38085;SDS011;23896;50.678;10.924;2022-09-09T11:21:23;4.50;;;0.98;;
38085;SDS011;23896;50.678;10.924;2022-09-09T11:23:54;4.78;;;1.30;;
38085;SDS011;23896;50.678;10.924;2022-09-09T11:26:28;3.30;;;1.00;;
38085;SDS011;23896;50.678;10.924;2022-09-09T11:40:34;3.83;;;1.13;;
38085;SDS011;23896;50.678;10.924;2022-09-09T11:42:40;3.05;;;1.20;;
38085;SDS011;23896;50.678;10.924;2022-09-09T11:45:11;4.43;;;1.05;;
38085;SDS011;23896;50.678;10.924;2022-09-09T11:47:53;5.18;;;1.30;;
38085;SDS011;23896;50.678;10.924;2022-09-09T11:52:50;2.05;;;0.90;;
38085;SDS011;23896;50.678;10.924;2022-09-09T11:58:02;4.15;;;1.38;;
38085;SDS011;23896;50.678;10.924;2022-09-09T12:03:00;5.38;;;1.15;;
38085;SDS011;23896;50.678;10.924;2022-09-09T12:05:40;4.78;;;1.17;;
38085;SDS011;23896;50.678;10.924;2022-09-09T12:08:15;3.03;;;1.17;;
38085;SDS011;23896;50.678;10.924;2022-09-09T12:10:52;2.28;;;0.98;;
38085;SDS011;23896;50.678;10.924;2022-09-09T12:13:23;3.58;;;1.42;;
38085;SDS011;23896;50.678;10.924;2022-09-09T12:15:50;2.15;;;0.95;;
38085;SDS011;23896;50.678;10.924;2022-09-09T12:18:32;4.55;;;1.00;;
38085;SDS011;23896;50.678;10.924;2022-09-09T12:26:25;2.50;;;1.27;;
38085;SDS011;23896;50.678;10.924;2022-09-09T12:29:03;2.40;;;1.55;;
38085;SDS011;23896;50.678;10.924;2022-09-09T12:36:55;5.15;;;1.35;;
38085;SDS011;23896;50.678;10.924;2022-09-09T12:39:29;6.13;;;1.38;;
38085;SDS011;23896;50.678;10.924;2022-09-09T12:41:58;3.45;;;0.98;;
38085;SDS011;23896;50.678;10.924;2022-09-09T12:44:25;2.97;;;1.17;;
38085;SDS011;23896;50.678;10.924;2022-09-09T12:46:55;5.50;;;1.23;;
38085;SDS011;23896;50.678;10.924;2022-09-09T12:52:23;2.60;;;0.98;;
38085;SDS011;23896;50.678;10.924;2022-09-09T12:54:46;2.63;;;1.00;;
38085;SDS011;23896;50.678;10.924;2022-09-09T12:57:13;2.63;;;0.98;;
38085;SDS011;23896;50.678;10.924;2022-09-09T12:59:41;2.97;;;1.10;;
38085;SDS011;23896;50.678;10.924;2022-09-09T13:02:21;2.45;;;1.10;;
38085;SDS011;23896;50.678;10.924;2022-09-09T13:04:48;2.10;;;1.15;;
38085;SDS011;23896;50.678;10.924;2022-09-09T13:07:16;2.97;;;0.98;;
38085;SDS011;23896;50.678;10.924;2022-09-09T13:09:43;2.30;;;1.38;;
38085;SDS011;23896;50.678;10.924;2022-09-09T13:12:14;3.20;;;1.08;;
38085;SDS011;23896;50.678;10.924;2022-09-09T13:14:42;4.10;;;1.75;;
38085;SDS011;23896;50.678;10.924;2022-09-09T13:17:17;2.03;;;0.93;;
38085;SDS011;23896;50.678;10.924;2022-09-09T13:19:45;3.60;;;0.98;;
38085;SDS011;23896;50.678;10.924;2022-09-09T13:22:34;2.92;;;1.00;;
38085;SDS011;23896;50.678;10.924;2022-09-09T13:25:21;4.90;;;1.27;;
38085;SDS011;23896;50.678;10.924;2022-09-09T13:27:53;2.35;;;0.77;;
38085;SDS011;23896;50.678;10.924;2022-09-09T13:30:24;7.18;;;0.93;;
38085;SDS011;23896;50.678;10.924;2022-09-09T13:33:01;2.53;;;0.73;;
38085;SDS011;23896;50.678;10.924;2022-09-09T13:35:28;2.15;;;0.82;;
38085;SDS011;23896;50.678;10.924;2022-09-09T13:37:55;3.72;;;1.00;;
38085;SDS011;23896;50.678;10.924;2022-09-09T13:40:22;2.35;;;0.95;;
38085;SDS011;23896;50.678;10.924;2022-09-09T13:42:53;3.45;;;1.08;;
38085;SDS011;23896;50.678;10.924;2022-09-09T13:45:22;2.42;;;1.00;;
38085;SDS011;23896;50.678;10.924;2022-09-09T13:47:52;3.13;;;0.90;;
38085;SDS011;23896;50.678;10.924;2022-09-09T13:50:21;2.90;;;1.30;;
38085;SDS011;23896;50.678;10.924;2022-09-09T13:52:48;1.75;;;0.70;;
38085;SDS011;23896;50.678;10.924;2022-09-09T13:55:17;1.95;;;1.00;;
38085;SDS011;23896;50.678;10.924;2022-09-09T14:00:32;2.95;;;1.20;;
38085;SDS011;23896;50.678;10.924;2022-09-09T14:03:01;3.70;;;1.52;;
38085;SDS011;23896;50.678;10.924;2022-09-09T14:05:29;2.53;;;0.98;;
38085;SDS011;23896;50.678;10.924;2022-09-09T14:07:56;1.23;;;0.70;;
38085;SDS011;23896;50.678;10.924;2022-09-09T14:10:23;3.03;;;1.08;;
38085;SDS011;23896;50.678;10.924;2022-09-09T14:12:50;2.17;;;1.02;;
38085;SDS011;23896;50.678;10.924;2022-09-09T14:15:18;2.33;;;0.70;;
38085;SDS011;23896;50.678;10.924;2022-09-09T14:17:47;3.15;;;1.17;;
38085;SDS011;23896;50.678;10.924;2022-09-09T14:20:14;5.25;;;0.95;;
38085;SDS011;23896;50.678;10.924;2022-09-09T14:22:42;4.43;;;1.50;;
38085;SDS011;23896;50.678;10.924;2022-09-09T14:25:09;3.05;;;1.77;;
38085;SDS011;23896;50.678;10.924;2022-09-09T14:27:37;3.80;;;1.63;;
38085;SDS011;23896;50.678;10.924;2022-09-09T14:30:05;3.88;;;1.38;;
38085;SDS011;23896;50.678;10.924;2022-09-09T14:32:31;2.00;;;1.13;;
38085;SDS011;23896;50.678;10.924;2022-09-09T14:34:59;4.30;;;0.90;;
38085;SDS011;23896;50.678;10.924;2022-09-09T14:37:26;3.55;;;1.10;;
38085;SDS011;23896;50.678;10.924;2022-09-09T14:39:53;2.13;;;0.98;;
38085;SDS011;23896;50.678;10.924;2022-09-09T14:42:20;3.72;;;1.02;;
38085;SDS011;23896;50.678;10.924;2022-09-09T14:44:47;3.78;;;1.60;;
38085;SDS011;23896;50.678;10.924;2022-09-09T14:47:19;3.42;;;0.95;;
38085;SDS011;23896;50.678;10.924;2022-09-09T14:49:51;9.25;;;5.30;;
38085;SDS011;23896;50.678;10.924;2022-09-09T14:52:18;2.13;;;0.77;;
38085;SDS011;23896;50.678;10.924;2022-09-09T14:54:45;2.10;;;1.10;;
38085;SDS011;23896;50.678;10.924;2022-09-09T14:57:12;4.40;;;1.20;;
38085;SDS011;23896;50.678;10.924;2022-09-09T14:59:38;4.43;;;1.17;;
38085;SDS011;23896;50.678;10.924;2022-09-09T15:02:04;1.85;;;1.05;;
38085;SDS011;23896;50.678;10.924;2022-09-09T15:04:31;2.90;;;1.77;;
38085;SDS011;23896;50.678;10.924;2022-09-09T15:06:57;1.98;;;1.23;;
38085;SDS011;23896;50.678;10.924;2022-09-09T15:09:24;2.03;;;1.20;;
38085;SDS011;23896;50.678;10.924;2022-09-09T15:11:59;4.05;;;1.08;;
38085;SDS011;23896;50.678;10.924;2022-09-09T15:14:26;2.05;;;0.98;;
38085;SDS011;23896;50.678;10.924;2022-09-09T15:16:53;2.75;;;1.23;;
38085;SDS011;23896;50.678;10.924;2022-09-09T15:19:20;1.92;;;0.80;;
38085;SDS011;23896;50.678;10.924;2022-09-09T15:21:46;3.17;;;0.93;;
38085;SDS011;23896;50.678;10.924;2022-09-09T15:24:12;3.97;;;1.23;;
38085;SDS011;23896;50.678;10.924;2022-09-09T15:26:42;0.80;;;0.70;;
38085;SDS011;23896;50.678;10.924;2022-09-09T15:29:08;2.38;;;0.98;;
38085;SDS011;23896;50.678;10.924;2022-09-09T15:31:36;1.75;;;1.02;;
38085;SDS011;23896;50.678;10.924;2022-09-09T15:34:06;2.45;;;0.98;;
38085;SDS011;23896;50.678;10.924;2022-09-09T15:36:35;2.92;;;0.95;;
38085;SDS011;23896;50.678;10.924;2022-09-09T15:39:03;2.47;;;0.80;;
38085;SDS011;23896;50.678;10.924;2022-09-09T15:41:30;2.10;;;1.13;;
38085;SDS011;23896;50.678;10.924;2022-09-09T15:43:57;3.10;;;1.15;;
38085;SDS011;23896;50.678;10.924;2022-09-09T15:46:30;1.55;;;0.70;;
38085;SDS011;23896;50.678;10.924;2022-09-09T15:49:42;1.83;;;0.90;;
38085;SDS011;23896;50.678;10.924;2022-09-09T15:51:45;2.88;;;0.77;;
38085;SDS011;23896;50.678;10.924;2022-09-09T15:54:13;1.58;;;0.80;;
38085;SDS011;23896;50.678;10.924;2022-09-09T15:56:41;1.85;;;0.70;;
38085;SDS011;23896;50.678;10.924;2022-09-09T15:59:08;1.80;;;0.80;;
38085;SDS011;23896;50.678;10.924;2022-09-09T16:01:36;1.50;;;0.95;;
38085;SDS011;23896;50.678;10.924;2022-09-09T16:04:04;2.33;;;0.70;;
38085;SDS011;23896;50.678;10.924;2022-09-09T16:06:31;4.60;;;1.25;;
38085;SDS011;23896;50.678;10.924;2022-09-09T16:08:58;3.88;;;0.80;;
38085;SDS011;23896;50.678;10.924;2022-09-09T16:11:27;1.02;;;0.80;;
38085;SDS011;23896;50.678;10.924;2022-09-09T16:13:55;1.27;;;0.80;;
38085;SDS011;23896;50.678;10.924;2022-09-09T16:16:23;1.58;;;0.95;;
38085;SDS011;23896;50.678;10.924;2022-09-09T16:18:50;2.63;;;1.00;;
38085;SDS011;23896;50.678;10.924;2022-09-09T16:21:18;3.10;;;0.80;;
38085;SDS011;23896;50.678;10.924;2022-09-09T16:23:48;3.63;;;1.00;;
38085;SDS011;23896;50.678;10.924;2022-09-09T16:26:15;1.70;;;0.80;;
38085;SDS011;23896;50.678;10.924;2022-09-09T16:28:43;3.20;;;0.70;;
38085;SDS011;23896;50.678;10.924;2022-09-09T16:31:13;2.17;;;1.27;;
38085;SDS011;23896;50.678;10.924;2022-09-09T16:33:40;2.33;;;1.08;;
38085;SDS011;23896;50.678;10.924;2022-09-09T16:36:07;1.85;;;1.00;;
38085;SDS011;23896;50.678;10.924;2022-09-09T16:38:35;2.30;;;0.80;;
38085;SDS011;23896;50.678;10.924;2022-09-09T16:41:02;2.80;;;1.10;;
38085;SDS011;23896;50.678;10.924;2022-09-09T16:43:31;3.53;;;0.90;;
38085;SDS011;23896;50.678;10.924;2022-09-09T16:45:58;1.67;;;0.95;;
38085;SDS011;23896;50.678;10.924;2022-09-09T16:48:26;2.85;;;1.20;;
38085;SDS011;23896;50.678;10.924;2022-09-09T16:50:52;2.58;;;1.00;;
38085;SDS011;23896;50.678;10.924;2022-09-09T16:53:20;2.83;;;0.80;;
38085;SDS011;23896;50.678;10.924;2022-09-09T16:55:46;2.40;;;1.00;;
38085;SDS011;23896;50.678;10.924;2022-09-09T16:58:13;2.25;;;1.45;;
38085;SDS011;23896;50.678;10.924;2022-09-09T17:00:39;1.33;;;0.82;;
38085;SDS011;23896;50.678;10.924;2022-09-09T17:03:06;2.00;;;1.00;;
38085;SDS011;23896;50.678;10.924;2022-09-09T17:05:32;1.67;;;0.70;;
38085;SDS011;23896;50.678;10.924;2022-09-09T17:07:58;2.55;;;0.80;;
38085;SDS011;23896;50.678;10.924;2022-09-09T17:10:25;2.25;;;0.75;;
38085;SDS011;23896;50.678;10.924;2022-09-09T17:12:51;2.15;;;1.13;;
38085;SDS011;23896;50.678;10.924;2022-09-09T17:15:18;1.83;;;1.10;;
38085;SDS011;23896;50.678;10.924;2022-09-09T17:17:49;3.92;;;1.25;;
38085;SDS011;23896;50.678;10.924;2022-09-09T17:20:19;2.30;;;1.00;;
38085;SDS011;23896;50.678;10.924;2022-09-09T17:22:46;3.08;;;1.15;;